createdAt,value
2022-11-04T00:02:09.065Z,8.50
2022-11-04T00:04:36.434Z,8.30
2022-11-04T00:07:23.221Z,8.40
2022-11-04T00:09:50.184Z,8.50
2022-11-04T00:12:25.761Z,8.30
2022-11-04T00:14:52.769Z,8.30
2022-11-04T00:17:19.976Z,8.50
2022-11-04T00:20:07.194Z,8.70
2022-11-04T00:22:52.980Z,8.70
2022-11-04T00:25:38.384Z,8.60
2022-11-04T00:28:44.091Z,8.40
2022-11-04T00:31:29.964Z,8.50
2022-11-04T00:33:58.791Z,8.70
2022-11-04T00:36:26.152Z,8.70
2022-11-04T00:38:53.937Z,8.60
2022-11-04T00:41:27.903Z,8.60
2022-11-04T00:43:56.966Z,8.70
2022-11-04T00:46:24.510Z,8.80
2022-11-04T00:48:51.458Z,8.90
2022-11-04T00:51:18.524Z,9.00
2022-11-04T00:53:45.497Z,9.00
2022-11-04T00:56:12.331Z,9.00
2022-11-04T00:58:39.177Z,9.00
2022-11-04T01:01:11.002Z,8.90
2022-11-04T01:03:38.186Z,8.90
2022-11-04T01:06:05.601Z,8.70
2022-11-04T01:08:32.483Z,8.70
2022-11-04T01:11:07.306Z,8.90
2022-11-04T01:13:34.266Z,9.00
2022-11-04T01:16:03.056Z,9.00
2022-11-04T01:18:29.953Z,8.80
2022-11-04T01:21:01.634Z,8.90
2022-11-04T01:23:28.960Z,9.10
2022-11-04T01:25:56.033Z,9.00
2022-11-04T01:28:23.143Z,9.00
2022-11-04T01:30:50.013Z,9.00
2022-11-04T01:33:16.795Z,9.00
2022-11-04T01:35:43.777Z,9.00
2022-11-04T01:38:11.371Z,9.10
2022-11-04T01:40:40.523Z,9.10
2022-11-04T01:43:17.797Z,9.20
2022-11-04T01:45:57.559Z,9.30
2022-11-04T01:48:33.191Z,9.20
2022-11-04T01:51:00.396Z,9.20
2022-11-04T01:53:39.897Z,9.20
2022-11-04T01:56:14.352Z,9.20
2022-11-04T01:58:49.314Z,9.30
2022-11-04T02:01:16.501Z,9.30
2022-11-04T02:03:50.972Z,9.30
2022-11-04T02:06:20.395Z,9.40
2022-11-04T02:08:48.250Z,9.50
2022-11-04T02:11:36.154Z,9.40
2022-11-04T02:14:03.593Z,9.40
2022-11-04T02:16:44.410Z,9.40
2022-11-04T02:19:32.840Z,9.30
2022-11-04T02:22:08.680Z,9.40
2022-11-04T02:25:04.990Z,9.50
2022-11-04T02:27:47.478Z,9.60
2022-11-04T02:30:17.417Z,9.70
2022-11-04T02:33:08.406Z,9.80
2022-11-04T02:36:09.797Z,9.70
2022-11-04T02:38:57.337Z,9.70
2022-11-04T02:41:35.699Z,9.80
2022-11-04T02:44:15.928Z,9.80
2022-11-04T02:52:08.831Z,9.80
2022-11-04T02:55:01.366Z,9.80
2022-11-04T02:57:32.238Z,10.00
2022-11-04T02:59:59.078Z,10.10
2022-11-04T03:02:36.127Z,10.00
2022-11-04T03:05:07.103Z,9.90
2022-11-04T03:13:14.907Z,10.00
2022-11-04T03:15:50.399Z,10.00
2022-11-04T03:18:23.173Z,10.00
2022-11-04T03:20:51.520Z,9.90
2022-11-04T03:23:19.412Z,9.90
2022-11-04T03:25:48.498Z,9.90
2022-11-04T03:28:50.485Z,9.90
2022-11-04T03:31:36.342Z,9.90
2022-11-04T03:34:03.344Z,9.90
2022-11-04T03:36:30.473Z,10.00
2022-11-04T03:38:57.451Z,10.00
2022-11-04T03:41:42.704Z,10.00
2022-11-04T03:44:09.655Z,10.00
2022-11-04T03:46:36.487Z,9.90
2022-11-04T03:49:04.378Z,9.90
2022-11-04T03:51:31.197Z,10.00
2022-11-04T03:53:58.854Z,10.10
2022-11-04T03:56:44.641Z,10.10
2022-11-04T03:59:40.687Z,10.10
2022-11-04T04:02:30.715Z,10.00
2022-11-04T04:05:01.908Z,10.00
2022-11-04T04:07:40.537Z,10.00
2022-11-04T04:10:39.329Z,10.00
2022-11-04T04:13:24.105Z,10.10
2022-11-04T04:16:16.730Z,10.10
2022-11-04T04:24:30.254Z,10.10
2022-11-04T04:27:21.107Z,10.10
2022-11-04T04:29:50.487Z,10.10
2022-11-04T04:32:18.363Z,10.10
2022-11-04T04:34:45.411Z,10.10
2022-11-04T04:37:18.327Z,10.00
2022-11-04T04:40:09.034Z,10.00
2022-11-04T04:42:55.571Z,10.00
2022-11-04T04:47:58.413Z,10.10
2022-11-04T04:52:58.487Z,10.20
2022-11-04T04:58:00.945Z,10.20
2022-11-04T05:00:30.485Z,10.20
2022-11-04T05:08:14.485Z,10.20
2022-11-04T05:13:30.482Z,10.30
2022-11-04T05:18:39.295Z,10.30
2022-11-04T05:21:08.599Z,10.30
2022-11-04T05:23:35.900Z,10.30
2022-11-04T05:26:02.893Z,10.30
2022-11-04T05:28:30.262Z,10.30
2022-11-04T05:30:57.560Z,10.30
2022-11-04T05:33:24.442Z,10.30
2022-11-04T05:35:51.397Z,10.30
2022-11-04T05:38:18.583Z,10.30
2022-11-04T05:40:45.420Z,10.30
2022-11-04T05:43:13.091Z,10.30
2022-11-04T05:45:40.409Z,10.30
2022-11-04T05:48:07.723Z,10.40
2022-11-04T05:50:36.347Z,10.40
2022-11-04T05:53:03.864Z,10.50
2022-11-04T05:55:30.976Z,10.50
2022-11-04T05:57:59.329Z,10.50
2022-11-04T06:00:27.897Z,10.50
2022-11-04T06:02:58.906Z,10.50
2022-11-04T06:05:27.387Z,10.50
2022-11-04T06:07:55.439Z,10.50
2022-11-04T06:10:23.008Z,10.50
2022-11-04T06:12:50.082Z,10.50
2022-11-04T06:15:17.146Z,10.50
2022-11-04T06:17:43.886Z,10.60
2022-11-04T06:20:11.060Z,10.50
2022-11-04T06:22:37.865Z,10.60
2022-11-04T06:25:04.984Z,10.50
2022-11-04T06:27:31.753Z,10.50
2022-11-04T06:29:58.583Z,10.50
2022-11-04T06:32:25.339Z,10.50
2022-11-04T06:34:52.077Z,10.60
2022-11-04T06:37:18.937Z,10.60
2022-11-04T06:39:45.675Z,10.60
2022-11-04T06:42:12.437Z,10.50
2022-11-04T06:44:39.208Z,10.60
2022-11-04T06:47:05.970Z,10.60
2022-11-04T06:49:32.849Z,10.50
2022-11-04T06:52:01.082Z,10.60
2022-11-04T06:54:27.829Z,10.50
2022-11-04T06:56:54.639Z,10.60
2022-11-04T06:59:21.516Z,10.60
2022-11-04T07:01:50.012Z,10.60
2022-11-04T07:04:16.868Z,10.60
2022-11-04T07:06:44.531Z,10.60
2022-11-04T07:09:14.201Z,10.70
2022-11-04T07:11:41.853Z,10.70
2022-11-04T07:14:09.848Z,10.60
2022-11-04T07:16:36.803Z,10.70
2022-11-04T07:19:04.244Z,10.60
2022-11-04T07:21:31.614Z,10.60
2022-11-04T07:23:58.756Z,10.60
2022-11-04T07:26:25.714Z,10.60
2022-11-04T07:28:53.042Z,10.60
2022-11-04T07:31:19.900Z,10.60
2022-11-04T07:33:51.421Z,10.60
2022-11-04T07:36:19.495Z,10.60
2022-11-04T07:38:46.505Z,10.60
2022-11-04T07:41:14.114Z,10.60
2022-11-04T07:43:41.079Z,10.60
2022-11-04T07:46:13.118Z,10.60
2022-11-04T07:48:40.106Z,10.60
2022-11-04T07:51:09.559Z,10.60
2022-11-04T07:53:37.114Z,10.60
2022-11-04T07:56:08.686Z,10.60
2022-11-04T07:58:35.549Z,10.60
2022-11-04T08:01:05.629Z,10.60
2022-11-04T08:03:33.251Z,10.70
2022-11-04T08:06:02.036Z,10.60
2022-11-04T08:08:29.689Z,10.70
2022-11-04T08:11:02.785Z,10.70
2022-11-04T08:13:31.471Z,10.70
2022-11-04T08:16:02.776Z,10.70
2022-11-04T08:18:31.481Z,10.80
2022-11-04T08:21:00.426Z,10.70
2022-11-04T08:23:27.166Z,10.70
2022-11-04T08:25:54.412Z,10.70
2022-11-04T08:28:21.177Z,10.70
2022-11-04T08:31:06.306Z,10.70
2022-11-04T08:33:36.065Z,10.60
2022-11-04T08:36:06.485Z,10.70
2022-11-04T08:38:34.516Z,10.60
2022-11-04T08:41:03.973Z,10.60
2022-11-04T08:43:31.079Z,10.60
2022-11-04T08:45:58.540Z,10.60
2022-11-04T08:48:25.563Z,10.60
2022-11-04T08:50:58.933Z,10.60
2022-11-04T08:53:27.320Z,10.70
2022-11-04T08:55:54.299Z,10.70
2022-11-04T08:58:21.935Z,10.70
2022-11-04T09:00:49.521Z,10.70
2022-11-04T09:03:16.393Z,10.70
2022-11-04T09:05:47.956Z,10.70
2022-11-04T09:08:16.858Z,10.70
2022-11-04T09:10:45.270Z,10.60
2022-11-04T09:13:12.821Z,10.70
2022-11-04T09:15:39.732Z,10.60
2022-11-04T09:18:07.536Z,10.60
2022-11-04T09:20:35.170Z,10.60
2022-11-04T09:23:02.001Z,10.60
2022-11-04T09:25:29.804Z,10.60
2022-11-04T09:27:56.556Z,10.60
2022-11-04T09:30:23.304Z,10.60
2022-11-04T09:32:52.697Z,10.60
2022-11-04T09:35:20.323Z,10.60
2022-11-04T09:37:47.194Z,10.50
2022-11-04T09:40:17.816Z,10.50
2022-11-04T09:43:10.974Z,10.50
2022-11-04T09:45:42.515Z,10.40
2022-11-04T09:48:31.209Z,10.40
2022-11-04T09:51:01.189Z,10.30
2022-11-04T09:53:49.971Z,10.30
2022-11-04T09:56:19.119Z,10.30
2022-11-04T09:58:46.242Z,10.20
2022-11-04T10:01:19.467Z,10.20
2022-11-04T10:04:04.977Z,10.10
2022-11-04T10:06:53.242Z,10.10
2022-11-04T10:09:39.867Z,10.10
2022-11-04T10:12:09.707Z,10.10
2022-11-04T10:14:45.580Z,10.10
2022-11-04T10:17:27.546Z,10.10
2022-11-04T10:20:12.694Z,10.10
2022-11-04T10:23:05.584Z,10.20
2022-11-04T10:25:47.233Z,10.10
2022-11-04T10:28:19.797Z,10.20
2022-11-04T10:30:52.029Z,10.10
2022-11-04T10:33:38.963Z,10.20
2022-11-04T10:36:10.137Z,10.10
2022-11-04T10:38:40.993Z,10.10
2022-11-04T10:41:26.479Z,10.20
2022-11-04T10:44:01.976Z,10.10
2022-11-04T10:46:55.758Z,10.10
2022-11-04T10:50:26.639Z,10.10
2022-11-04T10:52:43.581Z,10.20
2022-11-04T10:55:28.521Z,10.10
2022-11-04T10:57:58.521Z,10.20
2022-11-04T11:00:41.083Z,10.20
2022-11-04T11:03:26.706Z,10.20
2022-11-04T11:06:09.305Z,10.20
2022-11-04T11:08:37.470Z,10.20
2022-11-04T11:11:07.925Z,10.20
2022-11-04T11:13:40.920Z,10.30
2022-11-04T11:16:09.869Z,10.30
2022-11-04T11:18:38.422Z,10.30
2022-11-04T11:21:09.914Z,10.40
2022-11-04T11:23:48.577Z,10.40
2022-11-04T11:26:19.383Z,10.40
2022-11-04T11:28:59.056Z,10.40
2022-11-04T11:31:34.972Z,10.40
2022-11-04T11:34:06.325Z,10.40
2022-11-04T11:36:37.201Z,10.40
2022-11-04T11:39:17.525Z,10.40
2022-11-04T11:42:13.014Z,10.40
2022-11-04T11:44:47.128Z,10.40
2022-11-04T11:47:28.107Z,10.40
2022-11-04T11:50:13.547Z,10.40
2022-11-04T11:52:41.900Z,10.40
2022-11-04T11:55:26.453Z,10.40
2022-11-04T12:01:02.042Z,10.50
2022-11-04T12:10:02.441Z,10.50
2022-11-04T12:12:41.635Z,10.50
2022-11-04T12:15:20.582Z,10.60
2022-11-04T12:18:02.724Z,10.50
2022-11-04T12:20:45.457Z,10.60
2022-11-04T12:23:45.679Z,10.50
2022-11-04T12:26:26.126Z,10.50
2022-11-04T12:29:27.663Z,10.60
2022-11-04T12:32:32.705Z,10.60
2022-11-04T12:35:18.670Z,10.60
2022-11-04T12:37:58.490Z,10.60
2022-11-04T12:40:39.154Z,10.60
2022-11-04T12:43:43.233Z,10.70
2022-11-04T12:46:25.798Z,10.70
2022-11-04T12:49:23.270Z,10.70
2022-11-04T12:52:17.443Z,10.70
2022-11-04T12:54:49.933Z,10.70
2022-11-04T12:57:59.030Z,10.70
2022-11-04T13:00:28.369Z,10.70
2022-11-04T13:03:02.208Z,10.80
2022-11-04T13:05:44.934Z,10.80
2022-11-04T13:08:23.141Z,10.80
2022-11-04T13:10:59.489Z,10.90
2022-11-04T13:13:34.192Z,10.90
2022-11-04T13:16:06.806Z,10.90
2022-11-04T13:18:37.471Z,10.90
2022-11-04T13:21:23.268Z,10.90
2022-11-04T13:24:04.973Z,10.90
2022-11-04T13:26:32.190Z,10.90
2022-11-04T13:29:09.149Z,10.90
2022-11-04T13:31:57.923Z,10.90
2022-11-04T13:34:47.737Z,10.90
2022-11-04T13:37:17.859Z,11.00
2022-11-04T13:40:13.982Z,10.90
2022-11-04T13:42:47.771Z,10.90
2022-11-04T13:45:18.781Z,10.90
2022-11-04T13:50:38.622Z,11.00
2022-11-04T13:53:09.549Z,11.00
2022-11-04T13:55:47.839Z,10.90
2022-11-04T13:58:25.270Z,10.90
2022-11-04T14:01:14.106Z,10.90
2022-11-04T14:04:10.273Z,10.90
2022-11-04T14:06:57.054Z,11.00
2022-11-04T14:09:32.801Z,11.00
2022-11-04T14:12:14.701Z,10.90
2022-11-04T14:14:48.835Z,11.00
2022-11-04T14:17:34.075Z,11.00
2022-11-04T14:20:23.095Z,11.00
2022-11-04T14:22:51.141Z,11.00
2022-11-04T14:25:41.293Z,11.00
2022-11-04T14:28:11.184Z,11.00
2022-11-04T14:30:59.605Z,11.00
2022-11-04T14:33:34.644Z,10.90
2022-11-04T14:36:38.372Z,11.00
2022-11-04T14:39:11.102Z,10.90
2022-11-04T14:41:40.924Z,10.70
2022-11-04T14:44:16.014Z,10.70
2022-11-04T14:46:45.634Z,10.60
2022-11-04T14:49:44.244Z,10.40
2022-11-04T14:52:20.817Z,10.40
2022-11-04T14:54:48.931Z,10.50
2022-11-04T14:57:20.237Z,10.50
2022-11-04T14:59:47.780Z,10.50
2022-11-04T15:02:24.431Z,10.30
2022-11-04T15:05:01.766Z,10.20
2022-11-04T15:07:36.592Z,10.20
2022-11-04T15:10:28.686Z,9.90
2022-11-04T15:13:00.626Z,9.80
2022-11-04T15:15:32.875Z,9.80
2022-11-04T15:18:02.922Z,9.90
2022-11-04T15:20:31.373Z,9.90
2022-11-04T15:23:01.661Z,9.90
2022-11-04T15:25:28.738Z,9.80
2022-11-04T15:27:56.787Z,9.90
2022-11-04T15:30:27.758Z,9.90
2022-11-04T15:33:04.116Z,9.70
2022-11-04T15:35:33.291Z,9.30
2022-11-04T15:38:01.800Z,9.10
2022-11-04T15:40:30.910Z,9.20
2022-11-04T15:43:01.942Z,9.10
2022-11-04T15:45:50.096Z,9.10
2022-11-04T15:48:33.727Z,9.20
2022-11-04T15:51:21.499Z,9.30
2022-11-04T15:53:57.596Z,9.30
2022-11-04T15:56:50.791Z,9.30
2022-11-04T15:59:22.254Z,9.30
2022-11-04T16:01:52.054Z,9.20
2022-11-04T16:04:23.764Z,8.70
2022-11-04T16:07:10.727Z,8.30
2022-11-04T16:09:57.499Z,8.40
2022-11-04T16:12:26.937Z,8.40
2022-11-04T16:14:58.765Z,7.70
2022-11-04T16:17:26.152Z,7.90
2022-11-04T16:20:06.282Z,8.10
2022-11-04T16:22:40.703Z,8.20
2022-11-04T16:25:19.317Z,8.00
2022-11-04T16:27:46.488Z,8.00
2022-11-04T16:30:16.383Z,8.20
2022-11-04T16:32:48.872Z,8.20
2022-11-04T16:35:19.290Z,8.00
2022-11-04T16:37:46.807Z,7.50
2022-11-04T16:40:14.673Z,7.50
2022-11-04T16:42:42.428Z,7.80
2022-11-04T16:45:28.262Z,7.80
2022-11-04T16:47:55.320Z,7.60
2022-11-04T16:50:22.365Z,7.30
2022-11-04T16:52:49.189Z,7.10
2022-11-04T16:55:16.044Z,7.10
2022-11-04T16:57:44.214Z,7.30
2022-11-04T17:00:23.753Z,7.30
2022-11-04T17:02:51.350Z,7.30
2022-11-04T17:05:19.112Z,7.40
2022-11-04T17:07:53.534Z,7.40
2022-11-04T17:10:27.887Z,7.20
2022-11-04T17:12:54.660Z,7.20
2022-11-04T17:15:21.715Z,7.10
2022-11-04T17:17:48.650Z,7.10
2022-11-04T17:20:18.085Z,7.10
2022-11-04T17:22:47.265Z,7.20
2022-11-04T17:25:20.426Z,6.80
2022-11-04T17:27:47.815Z,6.90
2022-11-04T17:30:16.465Z,6.90
2022-11-04T17:32:44.649Z,7.00
2022-11-04T17:35:12.240Z,7.20
2022-11-04T17:37:39.020Z,6.70
2022-11-04T17:40:08.405Z,6.60
2022-11-04T17:42:53.570Z,6.60
2022-11-04T17:45:20.319Z,6.60
2022-11-04T17:47:47.182Z,6.50
2022-11-04T17:50:13.937Z,6.20
2022-11-04T17:52:42.321Z,6.10
2022-11-04T17:55:15.443Z,6.40
2022-11-04T17:57:43.305Z,6.50
2022-11-04T18:00:10.830Z,6.10
2022-11-04T18:02:38.597Z,6.20
2022-11-04T18:05:07.039Z,6.50
2022-11-04T18:07:34.527Z,6.50
2022-11-04T18:10:01.285Z,6.50
2022-11-04T18:12:37.081Z,6.50
2022-11-04T18:15:05.928Z,6.60
2022-11-04T18:17:36.136Z,6.50
2022-11-04T18:20:02.934Z,6.10
2022-11-04T18:22:29.710Z,6.10
2022-11-04T18:24:56.594Z,6.30
2022-11-04T18:27:23.399Z,6.40
2022-11-04T18:29:50.163Z,6.50
2022-11-04T18:32:16.935Z,6.60
2022-11-04T18:34:43.840Z,6.10
2022-11-04T18:37:11.369Z,6.00
2022-11-04T18:39:38.720Z,6.20
2022-11-04T18:42:05.632Z,6.20
2022-11-04T18:44:32.340Z,6.10
2022-11-04T18:46:59.115Z,5.90
2022-11-04T18:49:25.957Z,6.00
2022-11-04T18:51:52.703Z,6.10
2022-11-04T18:54:19.773Z,6.30
2022-11-04T18:56:46.597Z,6.20
2022-11-04T18:59:15.090Z,6.40
2022-11-04T19:01:43.059Z,6.40
2022-11-04T19:04:09.989Z,6.00
2022-11-04T19:06:41.640Z,5.90
2022-11-04T19:09:40.629Z,6.00
2022-11-04T19:12:23.430Z,5.80
2022-11-04T19:14:50.384Z,5.80
2022-11-04T19:17:17.174Z,6.10
2022-11-04T19:19:43.956Z,5.90
2022-11-04T19:22:11.027Z,5.80
2022-11-04T19:24:38.430Z,5.80
2022-11-04T19:27:05.769Z,5.80
2022-11-04T19:29:33.071Z,5.80
2022-11-04T19:32:00.609Z,5.90
2022-11-04T19:34:27.723Z,5.70
2022-11-04T19:36:54.596Z,5.70
2022-11-04T19:39:21.412Z,5.70
2022-11-04T19:42:06.596Z,5.90
2022-11-04T19:44:33.422Z,5.70
2022-11-04T19:47:00.209Z,5.90
2022-11-04T19:49:31.395Z,5.70
2022-11-04T19:51:59.038Z,5.70
2022-11-04T19:54:26.202Z,5.90
2022-11-04T19:56:53.269Z,5.80
2022-11-04T19:59:20.226Z,5.90
2022-11-04T20:01:47.111Z,5.60
2022-11-04T20:04:13.981Z,5.60
2022-11-04T20:06:40.745Z,5.60
2022-11-04T20:09:11.019Z,5.70
2022-11-04T20:11:59.525Z,5.70
2022-11-04T20:14:28.554Z,5.70
2022-11-04T20:16:55.701Z,5.80
2022-11-04T20:19:23.408Z,5.60
2022-11-04T20:21:50.849Z,5.70
2022-11-04T20:24:17.681Z,5.80
2022-11-04T20:26:44.666Z,5.80
2022-11-04T20:29:11.821Z,5.30
2022-11-04T20:31:39.569Z,5.40
2022-11-04T20:34:08.480Z,5.60
2022-11-04T20:36:37.181Z,5.40
2022-11-04T20:39:11.871Z,5.50
2022-11-04T20:41:38.691Z,5.40
2022-11-04T20:44:05.846Z,5.50
2022-11-04T20:46:35.929Z,5.60
2022-11-04T20:49:04.091Z,5.60
2022-11-04T20:51:34.067Z,5.20
2022-11-04T20:54:03.896Z,5.00
2022-11-04T20:56:32.722Z,5.10
2022-11-04T20:59:00.773Z,5.20
2022-11-04T21:01:33.050Z,5.20
2022-11-04T21:04:02.701Z,4.90
2022-11-04T21:06:30.523Z,5.00
2022-11-04T21:09:00.855Z,5.20
2022-11-04T21:11:31.759Z,5.20
2022-11-04T21:13:59.592Z,5.20
2022-11-04T21:16:26.490Z,5.20
2022-11-04T21:18:54.142Z,4.90
2022-11-04T21:21:21.161Z,4.70
2022-11-04T21:23:48.083Z,5.00
2022-11-04T21:26:22.457Z,5.00
2022-11-04T21:28:54.847Z,4.90
2022-11-04T21:31:22.130Z,5.10
2022-11-04T21:33:48.881Z,5.00
2022-11-04T21:36:15.741Z,4.70
2022-11-04T21:38:43.302Z,4.90
2022-11-04T21:41:13.230Z,4.80
2022-11-04T21:43:40.337Z,4.80
2022-11-04T21:46:13.320Z,4.70
2022-11-04T21:48:41.066Z,4.90
2022-11-04T21:51:13.910Z,5.00
2022-11-04T21:53:41.383Z,4.80
2022-11-04T21:56:15.091Z,5.00
2022-11-04T21:58:43.426Z,4.80
2022-11-04T22:01:12.396Z,4.40
2022-11-04T22:03:39.727Z,4.60
2022-11-04T22:06:12.436Z,4.70
2022-11-04T22:08:43.219Z,4.70
2022-11-04T22:11:12.817Z,4.60
2022-11-04T22:13:40.426Z,4.40
2022-11-04T22:16:12.282Z,4.50
2022-11-04T22:18:39.353Z,4.70
2022-11-04T22:21:10.216Z,4.80
2022-11-04T22:23:37.536Z,4.70
2022-11-04T22:26:07.766Z,4.60
2022-11-04T22:28:34.741Z,4.50
2022-11-04T22:31:20.016Z,4.30
2022-11-04T22:33:46.778Z,4.30
2022-11-04T22:36:14.076Z,4.50
2022-11-04T22:38:42.712Z,4.40
2022-11-04T22:41:13.586Z,4.50
2022-11-04T22:43:40.552Z,4.50
2022-11-04T22:46:13.324Z,4.70
2022-11-04T22:48:40.566Z,4.70
2022-11-04T22:51:09.265Z,4.80
2022-11-04T22:53:36.315Z,4.60
2022-11-04T22:56:05.029Z,4.70
2022-11-04T22:58:31.973Z,4.40
2022-11-04T23:01:06.072Z,4.60
2022-11-04T23:03:32.912Z,4.30
2022-11-04T23:06:02.866Z,4.40
2022-11-04T23:08:31.011Z,4.60
2022-11-04T23:11:19.866Z,4.40
2022-11-04T23:14:19.839Z,4.50
2022-11-04T23:17:08.308Z,4.50
2022-11-04T23:19:36.989Z,4.50
2022-11-04T23:22:22.893Z,4.50
2022-11-04T23:25:08.357Z,4.60
2022-11-04T23:27:57.598Z,4.50
2022-11-04T23:30:25.902Z,4.50
2022-11-04T23:32:54.006Z,4.70
2022-11-04T23:35:42.176Z,4.70
2022-11-04T23:38:09.129Z,4.30
2022-11-04T23:40:36.089Z,4.50
2022-11-04T23:43:02.855Z,4.50
2022-11-04T23:45:47.990Z,4.20
2022-11-04T23:48:33.855Z,4.50
2022-11-04T23:51:20.182Z,4.60
2022-11-04T23:54:05.914Z,4.50
2022-11-04T23:56:51.169Z,4.60
2022-11-04T23:59:36.929Z,4.80
